Time;durP1;ratioP1;P1;durP2;ratioP2;P2;SDS_P1;SDS_P2;PMS_P1;PMS_P2;Temp;Humidity;BMP_temperature;BMP_pressure;BME280_temperature;BME280_humidity;BME280_pressure;Samples;Min_cycle;Max_cycle;Signal;HPM_P1;HPM_P2
2021/09/22 00:01:15;;;;;;;4.72;3.67;;;19.40;79.00;;;;;;4207624;28;20039;-60
2021/09/22 00:03:37;;;;;;;5.43;4.97;;;19.40;79.10;;;;;;4208111;28;20067;-60
2021/09/22 00:05:59;;;;;;;5.20;4.32;;;19.30;79.00;;;;;;4208467;28;20133;-60
2021/09/22 00:08:21;;;;;;;7.00;5.00;;;19.30;79.10;;;;;;4208553;28;20105;-60
2021/09/22 00:10:44;;;;;;;5.75;4.78;;;19.30;79.00;;;;;;4208344;28;20048;-61
2021/09/22 00:13:06;;;;;;;5.35;4.85;;;19.40;79.20;;;;;;4208269;28;20090;-60
2021/09/22 00:15:30;;;;;;;5.13;4.68;;;19.30;79.10;;;;;;4207974;28;20047;-60
2021/09/22 00:17:53;;;;;;;4.65;4.25;;;19.30;79.00;;;;;;4207712;28;20066;-60
2021/09/22 00:20:16;;;;;;;4.63;4.22;;;19.30;79.10;;;;;;4207407;28;20082;-60
2021/09/22 00:22:38;;;;;;;8.48;5.22;;;19.30;79.20;;;;;;4207349;28;20044;-60
2021/09/22 00:25:00;;;;;;;5.75;4.65;;;19.30;79.10;;;;;;4207762;28;20579;-60
2021/09/22 00:27:22;;;;;;;5.50;5.10;;;19.30;79.10;;;;;;4207469;28;20040;-60
2021/09/22 00:29:44;;;;;;;5.07;4.53;;;19.30;79.10;;;;;;4207495;28;20044;-59
2021/09/22 00:32:07;;;;;;;5.10;4.70;;;19.30;79.10;;;;;;4207773;28;20109;-60
2021/09/22 00:34:30;;;;;;;4.85;4.38;;;19.30;79.00;;;;;;4205203;28;20052;-60
2021/09/22 00:36:52;;;;;;;4.88;4.45;;;19.30;79.00;;;;;;4208392;28;20186;-60
2021/09/22 00:39:14;;;;;;;5.07;4.55;;;19.30;79.00;;;;;;4235545;27;20175;-60
2021/09/22 00:41:36;;;;;;;5.00;4.60;;;19.30;79.00;;;;;;4207694;28;20050;-60
2021/09/22 00:43:58;;;;;;;8.02;5.00;;;19.20;79.20;;;;;;4207378;28;20051;-60
2021/09/22 00:46:20;;;;;;;5.47;4.97;;;19.20;79.00;;;;;;4206989;28;20563;-60
2021/09/22 00:48:43;;;;;;;4.78;4.35;;;19.20;79.00;;;;;;4204228;28;20537;-60
2021/09/22 00:51:07;;;;;;;5.05;4.57;;;19.30;79.10;;;;;;4206393;28;20502;-59
2021/09/22 00:53:30;;;;;;;6.03;4.65;;;19.20;79.00;;;;;;4207888;28;20190;-60
2021/09/22 00:55:52;;;;;;;5.40;4.40;;;19.20;79.00;;;;;;4207663;28;20553;-60
2021/09/22 00:58:20;;;;;;;4.68;4.30;;;19.20;79.00;;;;;;4207773;28;20090;-60
2021/09/22 01:00:42;;;;;;;4.75;4.15;;;19.20;79.00;;;;;;4180701;28;20152;-64
2021/09/22 01:03:04;;;;;;;7.93;4.65;;;19.20;79.00;;;;;;4207260;28;20044;-60
2021/09/22 01:05:28;;;;;;;4.68;4.25;;;19.20;79.00;;;;;;4207177;28;20402;-60
2021/09/22 01:07:51;;;;;;;5.97;4.47;;;19.20;79.00;;;;;;4207372;28;20055;-60
2021/09/22 01:10:14;;;;;;;4.97;4.53;;;19.20;79.00;;;;;;4207109;28;20044;-59
2021/09/22 01:12:36;;;;;;;4.80;4.40;;;19.20;79.10;;;;;;4206872;28;20135;-61
2021/09/22 01:14:59;;;;;;;5.13;4.65;;;19.20;79.00;;;;;;4190443;28;20135;-60
2021/09/22 01:17:21;;;;;;;5.57;4.80;;;19.20;79.00;;;;;;4190726;28;20048;-60
2021/09/22 01:19:43;;;;;;;4.32;4.03;;;19.10;78.90;;;;;;4190568;28;20072;-60
2021/09/22 01:22:07;;;;;;;4.93;4.40;;;19.10;78.90;;;;;;4197711;28;20501;-60
2021/09/22 01:24:43;;;;;;;4.80;4.28;;;19.20;78.90;;;;;;4204591;28;20441;-60
2021/09/22 01:27:05;;;;;;;5.03;4.60;;;19.10;79.00;;;;;;4205781;28;20516;-61
2021/09/22 01:29:27;;;;;;;6.18;4.80;;;19.10;79.00;;;;;;4206207;28;20134;-60
2021/09/22 01:31:52;;;;;;;5.03;4.63;;;19.10;79.00;;;;;;4206395;28;20075;-60
2021/09/22 01:34:15;;;;;;;5.40;4.65;;;19.10;79.10;;;;;;4210061;28;20067;-60
2021/09/22 01:36:56;;;;;;;4.45;4.15;;;19.10;79.10;;;;;;4192366;28;20453;-60
2021/09/22 01:39:25;;;;;;;4.80;4.50;;;19.10;79.20;;;;;;4206699;28;20054;-59
2021/09/22 01:41:48;;;;;;;6.63;4.93;;;19.10;79.10;;;;;;4192285;28;20151;-60
2021/09/22 01:44:11;;;;;;;4.68;4.28;;;19.10;79.10;;;;;;4192597;28;20062;-60
2021/09/22 01:47:09;;;;;;;4.32;4.00;;;19.10;79.10;;;;;;4174697;28;20067;-59
2021/09/22 01:50:00;;;;;;;4.80;3.83;;;19.10;79.20;;;;;;4193368;28;20517;-60
2021/09/22 01:52:25;;;;;;;5.03;4.30;;;19.10;79.10;;;;;;4192708;28;20041;-60
2021/09/22 01:55:00;;;;;;;5.43;4.32;;;19.10;79.20;;;;;;4196763;28;20055;-60
2021/09/22 01:57:22;;;;;;;4.60;4.20;;;19.00;79.00;;;;;;4207799;28;20119;-60
2021/09/22 01:59:44;;;;;;;4.65;4.25;;;19.10;79.00;;;;;;4208165;28;20052;-60
2021/09/22 02:02:20;;;;;;;5.53;4.50;;;19.10;79.00;;;;;;4208739;28;20437;-60
2021/09/22 02:05:11;;;;;;;4.60;4.20;;;19.00;79.00;;;;;;4203806;28;20055;-60
2021/09/22 02:07:34;;;;;;;4.57;4.18;;;19.00;79.10;;;;;;4207982;28;20076;-60
2021/09/22 02:10:01;;;;;;;4.28;4.07;;;19.00;79.00;;;;;;4207736;28;20536;-58
2021/09/22 02:12:24;;;;;;;3.88;3.67;;;19.00;78.90;;;;;;4209454;28;20076;-60
2021/09/22 02:14:46;;;;;;;4.60;4.30;;;19.00;79.00;;;;;;4192734;28;20044;-59
2021/09/22 02:17:08;;;;;;;4.60;4.18;;;19.00;78.90;;;;;;4176842;28;20056;-60
2021/09/22 02:19:33;;;;;;;4.82;4.45;;;19.00;78.90;;;;;;4163770;28;20131;-60
2021/09/22 02:22:18;;;;;;;4.35;3.95;;;19.00;78.80;;;;;;4176279;28;20045;-60
2021/09/22 02:24:56;;;;;;;4.50;4.20;;;19.00;79.00;;;;;;4189734;28;20113;-60
2021/09/22 02:27:19;;;;;;;5.15;4.75;;;19.00;79.00;;;;;;4193770;28;20044;-60
2021/09/22 02:29:42;;;;;;;4.70;4.35;;;19.00;79.00;;;;;;4209313;28;20055;-60
2021/09/22 02:32:04;;;;;;;5.60;4.60;;;18.90;79.00;;;;;;4209403;28;20132;-59
2021/09/22 02:34:26;;;;;;;4.88;4.47;;;19.00;79.00;;;;;;4178696;28;20107;-60
2021/09/22 02:36:50;;;;;;;5.28;4.38;;;19.00;79.00;;;;;;4194227;28;20056;-60
2021/09/22 02:39:15;;;;;;;4.10;3.80;;;18.90;78.90;;;;;;4193523;28;20094;-60
2021/09/22 02:41:40;;;;;;;4.68;4.28;;;19.00;79.00;;;;;;4209817;28;20189;-60
2021/09/22 02:44:05;;;;;;;4.68;4.22;;;18.90;79.00;;;;;;4193919;28;20462;-60
2021/09/22 02:46:38;;;;;;;4.75;4.35;;;18.90;78.90;;;;;;4222421;28;20052;-60
2021/09/22 02:49:00;;;;;;;4.97;4.57;;;18.90;79.00;;;;;;4186883;28;20112;-60
2021/09/22 02:51:24;;;;;;;5.93;5.40;;;18.90;79.00;;;;;;4188806;28;20045;-60
2021/09/22 02:53:46;;;;;;;5.53;4.97;;;18.90;79.00;;;;;;4208479;28;20055;-60
2021/09/22 02:56:10;;;;;;;6.00;5.10;;;18.90;79.00;;;;;;4206865;28;20055;-60
2021/09/22 02:58:32;;;;;;;5.38;4.97;;;18.90;79.00;;;;;;4207906;28;20044;-60
2021/09/22 03:00:57;;;;;;;5.68;4.90;;;18.90;78.90;;;;;;4200319;28;20051;-60
2021/09/22 03:03:20;;;;;;;5.80;5.30;;;18.90;78.90;;;;;;4207838;28;20047;-60
2021/09/22 03:05:42;;;;;;;6.20;5.10;;;18.90;79.00;;;;;;4209130;28;20163;-59
2021/09/22 03:08:05;;;;;;;5.47;5.03;;;18.90;78.90;;;;;;4207725;28;20052;-60
2021/09/22 03:10:27;;;;;;;5.45;4.95;;;18.90;78.90;;;;;;4207844;28;20811;-60
2021/09/22 03:12:49;;;;;;;5.88;4.82;;;18.90;79.00;;;;;;4208879;28;20512;-60
2021/09/22 03:15:12;;;;;;;4.80;4.40;;;18.90;78.90;;;;;;4236670;27;20477;-60
2021/09/22 03:17:36;;;;;;;5.15;4.85;;;18.80;78.80;;;;;;4209350;28;20060;-59
2021/09/22 03:19:58;;;;;;;7.30;5.30;;;18.80;78.80;;;;;;4236880;27;20563;-59
2021/09/22 03:22:20;;;;;;;5.07;4.57;;;18.80;78.70;;;;;;4208972;28;20050;-59
2021/09/22 03:25:03;;;;;;;12.50;5.35;;;18.80;78.80;;;;;;4207511;28;20104;-58
2021/09/22 03:27:26;;;;;;;4.82;4.43;;;18.80;78.90;;;;;;4208826;28;20070;-60
2021/09/22 03:29:48;;;;;;;5.65;5.13;;;18.80;78.80;;;;;;4176345;28;20655;-59
2021/09/22 03:32:10;;;;;;;5.07;4.68;;;18.80;78.90;;;;;;4208351;28;20086;-60
2021/09/22 03:34:34;;;;;;;4.97;4.57;;;18.80;78.80;;;;;;4206238;28;20052;-60
2021/09/22 03:36:56;;;;;;;4.65;4.35;;;18.80;78.70;;;;;;4207548;28;20051;-61
2021/09/22 03:39:18;;;;;;;4.30;4.00;;;18.80;78.90;;;;;;4207284;28;20055;-61
2021/09/22 03:41:41;;;;;;;3.75;3.55;;;18.80;78.90;;;;;;4208414;28;20492;-61
2021/09/22 03:44:03;;;;;;;3.80;3.60;;;18.80;78.90;;;;;;4207394;28;20076;-60
2021/09/22 03:46:25;;;;;;;3.78;3.58;;;18.80;78.90;;;;;;4207261;28;20050;-61
2021/09/22 03:48:47;;;;;;;3.70;3.50;;;18.80;78.90;;;;;;4207197;28;20097;-60
2021/09/22 03:51:11;;;;;;;4.28;3.97;;;18.80;78.90;;;;;;4207434;28;20062;-60
2021/09/22 03:53:35;;;;;;;4.50;4.10;;;18.80;78.90;;;;;;4192086;28;20047;-62
2021/09/22 03:55:57;;;;;;;4.50;4.20;;;18.80;79.00;;;;;;4189630;28;20064;-60
2021/09/22 03:58:19;;;;;;;4.03;3.83;;;18.70;79.00;;;;;;4190431;28;20135;-59
2021/09/22 04:00:42;;;;;;;4.25;3.95;;;18.70;79.00;;;;;;4195195;28;20055;-61
2021/09/22 04:03:04;;;;;;;4.22;4.03;;;18.70;79.00;;;;;;4206984;28;20063;-60
2021/09/22 04:05:28;;;;;;;4.07;3.88;;;18.70;79.10;;;;;;4207113;28;20117;-60
2021/09/22 04:07:51;;;;;;;4.40;4.07;;;18.70;79.10;;;;;;4208330;28;20047;-60
2021/09/22 04:10:13;;;;;;;5.43;4.72;;;18.70;79.10;;;;;;4207119;28;20052;-60
2021/09/22 04:12:36;;;;;;;4.40;4.10;;;18.70;79.30;;;;;;4206666;28;20080;-59
2021/09/22 04:15:00;;;;;;;4.28;3.97;;;18.70;79.30;;;;;;4206568;28;20169;-60
2021/09/22 04:17:23;;;;;;;4.50;4.25;;;18.70;79.30;;;;;;4206579;28;20056;-59
2021/09/22 04:19:45;;;;;;;4.90;4.60;;;18.70;79.30;;;;;;4206779;28;20063;-61
2021/09/22 04:22:08;;;;;;;4.82;4.53;;;18.70;79.30;;;;;;4206838;28;20059;-60
2021/09/22 04:24:32;;;;;;;4.85;4.50;;;18.70;79.30;;;;;;4205273;28;20549;-59
2021/09/22 04:26:54;;;;;;;4.45;4.05;;;18.70;79.30;;;;;;4182350;28;20473;-59
2021/09/22 04:29:26;;;;;;;4.25;3.95;;;18.70;79.70;;;;;;4205781;28;20524;-60
2021/09/22 04:32:07;;;;;;;5.32;5.03;;;18.70;79.60;;;;;;4205876;28;20052;-60
2021/09/22 04:34:48;;;;;;;4.43;4.18;;;18.70;79.70;;;;;;4207697;28;20047;-59
2021/09/22 04:37:35;;;;;;;5.15;4.85;;;18.70;79.60;;;;;;4207068;28;20580;-60
2021/09/22 04:40:18;;;;;;;4.85;4.47;;;18.60;79.60;;;;;;4175013;28;20132;-60
2021/09/22 04:43:00;;;;;;;5.55;5.00;;;18.60;79.60;;;;;;4206085;28;20048;-58
2021/09/22 04:45:42;;;;;;;;;;;18.60;79.60;;;;;;4191525;28;20104;-59
2021/09/22 04:48:23;;;;;;;4.90;4.60;;;18.60;80.10;;;;;;4190673;28;20556;-60
2021/09/22 04:51:04;;;;;;;4.90;4.53;;;18.60;80.10;;;;;;4194892;28;20059;-60
2021/09/22 04:53:45;;;;;;;5.05;4.75;;;18.60;80.00;;;;;;4190805;28;20048;-60
2021/09/22 04:56:47;;;;;;;5.13;4.75;;;18.60;79.90;;;;;;4155508;28;20058;-60
2021/09/22 04:59:28;;;;;;;5.80;5.30;;;18.60;79.80;;;;;;4123032;28;20073;-59
2021/09/22 05:02:09;;;;;;;5.80;5.40;;;18.60;79.80;;;;;;4179732;28;20052;-60
2021/09/22 05:05:00;;;;;;;5.53;5.22;;;18.60;80.00;;;;;;4158254;28;20049;-61
2021/09/22 05:07:42;;;;;;;5.65;5.15;;;18.60;80.00;;;;;;4192371;28;20122;-59
2021/09/22 05:10:26;;;;;;;5.85;5.32;;;18.60;80.00;;;;;;4179816;28;20048;-61
2021/09/22 05:13:12;;;;;;;5.68;5.15;;;18.60;80.10;;;;;;4194152;28;20048;-61
2021/09/22 05:15:52;;;;;;;6.28;5.78;;;18.60;80.00;;;;;;4177103;28;20044;-60
2021/09/22 05:18:33;;;;;;;6.45;6.05;;;18.60;80.10;;;;;;4193847;28;20047;-61
2021/09/22 05:21:15;;;;;;;6.03;5.63;;;18.60;80.20;;;;;;4209141;28;20739;-58
2021/09/22 05:23:56;;;;;;;6.20;5.70;;;18.60;80.20;;;;;;4210296;28;20051;-60
2021/09/22 05:26:37;;;;;;;6.28;5.75;;;18.60;80.20;;;;;;4210003;28;20768;-59
2021/09/22 05:29:24;;;;;;;6.05;5.65;;;18.60;80.30;;;;;;4165594;28;20125;-58
2021/09/22 05:32:05;;;;;;;7.50;5.95;;;18.60;79.90;;;;;;4209271;28;20040;-61
2021/09/22 05:34:47;;;;;;;7.38;6.70;;;18.60;79.90;;;;;;4208454;28;20072;-61
2021/09/22 05:37:30;;;;;;;26.25;7.25;;;18.60;80.10;;;;;;4192908;28;20055;-61
2021/09/22 05:40:11;;;;;;;11.30;7.18;;;18.70;79.90;;;;;;4208599;28;20091;-59
2021/09/22 05:42:52;;;;;;;14.60;7.00;;;18.70;79.90;;;;;;4209814;28;20040;-61
2021/09/22 05:45:34;;;;;;;10.25;7.03;;;18.60;79.60;;;;;;4210203;28;20627;-61
2021/09/22 05:48:15;;;;;;;7.00;6.50;;;18.70;79.50;;;;;;4210432;28;20079;-64
2021/09/22 05:50:57;;;;;;;7.05;6.53;;;18.60;79.40;;;;;;4199910;28;20410;-62
2021/09/22 05:53:40;;;;;;;7.72;7.07;;;18.60;79.40;;;;;;4193470;28;20051;-61
2021/09/22 05:56:21;;;;;;;7.47;6.88;;;18.60;80.30;;;;;;4193782;28;20044;-63
2021/09/22 05:59:02;;;;;;;7.88;7.18;;;18.60;80.30;;;;;;4206036;28;20052;-61
2021/09/22 06:01:44;;;;;;;7.45;6.88;;;18.60;79.50;;;;;;4209945;28;20055;-61
2021/09/22 06:04:41;;;;;;;8.55;7.72;;;18.60;79.60;;;;;;4174338;28;20051;-59
2021/09/22 06:07:33;;;;;;;7.82;7.05;;;18.60;79.60;;;;;;4189102;28;20139;-62
2021/09/22 06:10:21;;;;;;;8.40;7.57;;;18.60;79.90;;;;;;4194275;27;20131;-62
2021/09/22 06:13:01;;;;;;;7.55;6.75;;;18.60;80.10;;;;;;4207807;28;20048;-62
2021/09/22 06:15:24;;;;;;;7.90;7.10;;;18.50;81.00;;;;;;4209876;28;20051;-60
2021/09/22 06:17:49;;;;;;;9.15;7.65;;;18.60;80.30;;;;;;4207806;28;20476;-60
2021/09/22 06:20:12;;;;;;;8.15;7.35;;;18.50;80.30;;;;;;4175842;28;20048;-60
2021/09/22 06:22:33;;;;;;;9.63;8.68;;;18.50;80.50;;;;;;4208392;28;20071;-62
2021/09/22 06:24:56;;;;;;;7.68;6.93;;;18.50;80.60;;;;;;4207647;28;20508;-60
2021/09/22 06:27:18;;;;;;;9.32;8.45;;;18.50;80.70;;;;;;4209513;28;20139;-61
2021/09/22 06:29:44;;;;;;;8.18;7.47;;;18.50;80.70;;;;;;4190277;28;20105;-60
2021/09/22 06:32:07;;;;;;;7.88;7.28;;;18.50;80.70;;;;;;4192964;28;20463;-63
2021/09/22 06:35:03;;;;;;;7.60;7.00;;;18.50;80.80;;;;;;4166085;28;20140;-62
2021/09/22 06:37:45;;;;;;;8.30;7.50;;;18.50;80.80;;;;;;4191421;28;20135;-60
2021/09/22 06:40:10;;;;;;;9.18;8.30;;;18.50;80.80;;;;;;4206107;28;20052;-60
2021/09/22 06:42:36;;;;;;;7.90;7.18;;;18.50;80.80;;;;;;4207816;28;20474;-60
2021/09/22 06:44:58;;;;;;;8.60;7.80;;;18.50;80.90;;;;;;4209317;28;20046;-59
2021/09/22 06:47:21;;;;;;;8.82;7.93;;;18.50;80.90;;;;;;4207898;28;20056;-60
2021/09/22 06:49:42;;;;;;;8.88;8.07;;;18.50;80.90;;;;;;4209655;28;20070;-61
2021/09/22 06:52:06;;;;;;;8.68;7.88;;;18.50;80.90;;;;;;4209544;28;20461;-65
2021/09/22 06:54:29;;;;;;;8.27;7.47;;;18.50;80.90;;;;;;4209514;28;20056;-62
2021/09/22 06:56:51;;;;;;;9.48;8.65;;;18.50;80.90;;;;;;4209665;28;20052;-62
2021/09/22 06:59:13;;;;;;;8.90;8.00;;;18.50;81.00;;;;;;4209460;28;20056;-60
2021/09/22 07:01:35;;;;;;;9.13;8.40;;;18.50;81.10;;;;;;4207190;28;20052;-61
2021/09/22 07:03:58;;;;;;;8.88;8.05;;;18.50;81.20;;;;;;4207811;28;20048;-61
2021/09/22 07:06:20;;;;;;;9.93;8.98;;;18.50;81.30;;;;;;4208174;28;20455;-62
2021/09/22 07:08:45;;;;;;;9.32;8.52;;;18.50;81.40;;;;;;4209336;28;20078;-61
2021/09/22 07:11:07;;;;;;;8.50;7.80;;;18.50;81.50;;;;;;4208675;28;20044;-62
2021/09/22 07:13:35;;;;;;;8.60;7.75;;;18.50;81.50;;;;;;4209360;28;20055;-61
2021/09/22 07:15:57;;;;;;;8.77;7.97;;;18.50;81.50;;;;;;4209132;28;20111;-61
2021/09/22 07:18:20;;;;;;;8.00;7.38;;;18.50;81.60;;;;;;4209121;28;20505;-62
2021/09/22 07:20:43;;;;;;;8.70;7.95;;;18.50;81.60;;;;;;4208853;28;20158;-62
2021/09/22 07:23:06;;;;;;;8.52;7.82;;;18.50;81.60;;;;;;4208934;28;20048;-62
2021/09/22 07:25:30;;;;;;;9.85;8.85;;;18.50;81.70;;;;;;4209236;28;20131;-62
2021/09/22 07:27:52;;;;;;;8.93;7.68;;;18.50;81.80;;;;;;4207514;28;20052;-61
2021/09/22 07:30:15;;;;;;;8.63;7.82;;;18.50;81.70;;;;;;4207843;28;20131;-61
2021/09/22 07:32:37;;;;;;;9.13;8.15;;;18.50;81.80;;;;;;4208816;28;20056;-62
2021/09/22 07:35:00;;;;;;;7.85;7.05;;;18.60;81.90;;;;;;4208916;28;20062;-61
2021/09/22 07:37:24;;;;;;;10.20;9.20;;;18.60;82.70;;;;;;4208490;28;20052;-61
2021/09/22 07:39:47;;;;;;;8.40;7.60;;;18.60;82.00;;;;;;4196690;28;20075;-62
2021/09/22 07:42:12;;;;;;;9.35;8.32;;;18.60;82.00;;;;;;4208103;28;20059;-60
2021/09/22 07:44:35;;;;;;;8.80;7.82;;;18.60;82.00;;;;;;4208254;28;20067;-61
2021/09/22 07:46:57;;;;;;;9.10;8.27;;;18.60;81.90;;;;;;4208323;28;20127;-61
2021/09/22 07:49:19;;;;;;;8.80;8.02;;;18.60;81.90;;;;;;4205977;28;20131;-61
2021/09/22 07:51:41;;;;;;;8.82;8.13;;;18.60;81.90;;;;;;4197225;28;20040;-61
2021/09/22 07:54:03;;;;;;;8.60;7.90;;;18.60;82.00;;;;;;4198331;28;20561;-63
2021/09/22 07:56:25;;;;;;;8.38;7.68;;;18.60;82.00;;;;;;4206640;28;20135;-63
2021/09/22 07:58:49;;;;;;;7.75;7.07;;;18.60;82.10;;;;;;4207650;28;20097;-60
2021/09/22 08:01:12;;;;;;;7.82;7.32;;;18.60;82.20;;;;;;4205816;28;20052;-64
2021/09/22 08:03:34;;;;;;;7.28;6.57;;;18.70;82.10;;;;;;4198089;28;20127;-64
2021/09/22 08:05:56;;;;;;;8.23;6.63;;;18.70;82.20;;;;;;4189951;28;20055;-59
2021/09/22 08:08:18;;;;;;;8.35;6.97;;;18.80;82.20;;;;;;4190378;28;20487;-60
2021/09/22 08:10:41;;;;;;;7.45;6.82;;;18.80;81.90;;;;;;4192851;28;20139;-59
2021/09/22 08:13:04;;;;;;;7.70;7.03;;;18.80;81.80;;;;;;4190334;28;20036;-60
2021/09/22 08:15:28;;;;;;;7.25;6.68;;;18.90;81.60;;;;;;4183430;28;20102;-61
2021/09/22 08:17:52;;;;;;;7.60;6.97;;;18.90;81.50;;;;;;4188990;28;20510;-61
2021/09/22 08:20:15;;;;;;;7.95;7.15;;;18.90;81.40;;;;;;4207665;28;20501;-61
2021/09/22 08:22:38;;;;;;;7.13;6.55;;;18.90;81.20;;;;;;4207478;28;20048;-60
2021/09/22 08:25:00;;;;;;;8.20;7.40;;;19.00;81.20;;;;;;4207346;28;20051;-61
2021/09/22 08:27:23;;;;;;;7.30;6.75;;;19.00;80.90;;;;;;4208108;28;20135;-61
2021/09/22 08:29:45;;;;;;;9.35;8.20;;;19.00;80.80;;;;;;4208328;28;20044;-61
2021/09/22 08:32:08;;;;;;;8.43;7.47;;;19.00;80.70;;;;;;4207798;28;20056;-61
2021/09/22 08:34:31;;;;;;;8.70;7.05;;;19.00;80.80;;;;;;4207810;28;20414;-61
2021/09/22 08:36:53;;;;;;;9.02;8.07;;;19.00;80.90;;;;;;4207112;28;20051;-60
2021/09/22 08:39:15;;;;;;;8.57;7.78;;;19.00;80.80;;;;;;4207279;28;20664;-61
2021/09/22 08:41:38;;;;;;;9.55;8.73;;;19.00;80.70;;;;;;4207068;28;20040;-61
2021/09/22 08:44:03;;;;;;;10.13;9.00;;;19.00;80.80;;;;;;4207035;28;20056;-61
2021/09/22 08:46:25;;;;;;;9.60;8.73;;;19.00;81.10;;;;;;4207569;28;20101;-61
2021/09/22 08:48:49;;;;;;;13.38;9.35;;;19.00;80.90;;;;;;4207724;28;20458;-61
2021/09/22 08:51:11;;;;;;;10.23;9.23;;;19.00;81.80;;;;;;4206553;28;20109;-59
2021/09/22 08:53:33;;;;;;;10.38;9.30;;;19.00;81.00;;;;;;4190783;28;20075;-59
2021/09/22 08:55:57;;;;;;;8.95;7.88;;;19.00;81.00;;;;;;4205630;28;20056;-59
2021/09/22 08:58:19;;;;;;;11.00;9.90;;;19.00;80.80;;;;;;4207425;28;20118;-62
2021/09/22 09:00:43;;;;;;;11.70;10.55;;;19.00;81.00;;;;;;4207339;28;20575;-63
2021/09/22 09:03:06;;;;;;;12.40;11.10;;;19.10;81.00;;;;;;4206880;28;20040;-63
2021/09/22 09:05:29;;;;;;;12.95;11.60;;;19.10;80.90;;;;;;4207085;28;20102;-63
2021/09/22 09:07:54;;;;;;;12.00;10.80;;;19.00;81.20;;;;;;4191853;28;20552;-63
2021/09/22 09:10:18;;;;;;;13.30;12.07;;;19.10;81.20;;;;;;4207771;28;20067;-62
2021/09/22 09:12:40;;;;;;;14.95;12.52;;;19.10;81.30;;;;;;4207777;28;20404;-60
2021/09/22 09:15:09;;;;;;;13.20;11.90;;;19.10;81.20;;;;;;4207484;28;20120;-60
2021/09/22 09:17:39;;;;;;;12.38;10.25;;;19.10;81.40;;;;;;4207339;28;20052;-61
2021/09/22 09:20:03;;;;;;;12.52;11.23;;;19.10;81.20;;;;;;4207666;28;20051;-61
2021/09/22 09:22:26;;;;;;;14.02;12.52;;;19.10;81.20;;;;;;4207381;28;20052;-61
2021/09/22 09:24:48;;;;;;;13.65;12.35;;;19.10;81.40;;;;;;4207599;28;20133;-61
2021/09/22 09:27:12;;;;;;;14.32;11.95;;;19.20;81.50;;;;;;4207621;28;20044;-60
2021/09/22 09:29:35;;;;;;;13.93;12.48;;;19.20;81.50;;;;;;4207562;28;20044;-61
2021/09/22 09:32:17;;;;;;;13.43;11.55;;;19.20;81.50;;;;;;4207472;28;20047;-63
2021/09/22 09:34:57;;;;;;;12.57;11.15;;;19.20;81.60;;;;;;4201882;28;20078;-62
2021/09/22 09:37:31;;;;;;;15.32;12.75;;;19.20;81.50;;;;;;4206498;28;20482;-63
2021/09/22 09:39:53;;;;;;;13.02;11.55;;;19.20;81.80;;;;;;4207148;28;20044;-63
2021/09/22 09:42:27;;;;;;;13.95;12.43;;;19.10;81.60;;;;;;4207038;28;20067;-60
2021/09/22 09:44:49;;;;;;;13.43;12.02;;;19.20;81.80;;;;;;4205238;28;20052;-61
2021/09/22 09:47:12;;;;;;;14.65;13.13;;;19.20;81.60;;;;;;4206888;28;20116;-61
2021/09/22 09:49:35;;;;;;;14.95;13.10;;;19.30;81.80;;;;;;4206994;28;20123;-61
2021/09/22 09:51:59;;;;;;;16.67;14.73;;;19.30;81.80;;;;;;4207057;28;20051;-60
2021/09/22 09:54:24;;;;;;;16.63;13.88;;;19.30;82.10;;;;;;4209477;28;20578;-61
2021/09/22 09:56:48;;;;;;;17.48;13.38;;;19.40;82.00;;;;;;4208218;28;20044;-61
2021/09/22 09:59:10;;;;;;;16.35;14.65;;;19.40;81.70;;;;;;4209928;28;20131;-61
2021/09/22 10:01:40;;;;;;;17.20;13.23;;;19.40;81.80;;;;;;4209767;28;20052;-61
2021/09/22 10:04:03;;;;;;;17.67;15.15;;;19.40;81.70;;;;;;4210385;28;20043;-61
2021/09/22 10:06:25;;;;;;;18.42;14.98;;;19.40;81.30;;;;;;4209927;28;20040;-60
2021/09/22 10:08:48;;;;;;;16.52;14.30;;;19.40;81.50;;;;;;4208782;28;20508;-61
2021/09/22 10:11:11;;;;;;;16.35;13.70;;;19.50;81.60;;;;;;4209710;28;20059;-61
2021/09/22 10:13:35;;;;;;;17.70;13.85;;;19.50;81.60;;;;;;4209908;28;20051;-61
2021/09/22 10:15:58;;;;;;;15.52;13.90;;;19.50;81.80;;;;;;4209985;28;20075;-60
2021/09/22 10:18:20;;;;;;;20.02;14.02;;;19.50;81.50;;;;;;4209793;28;20512;-63
2021/09/22 10:20:44;;;;;;;19.67;14.50;;;19.60;81.80;;;;;;4209720;28;20044;-60
2021/09/22 10:23:13;;;;;;;19.42;14.00;;;19.60;82.50;;;;;;4208982;28;20117;-59
2021/09/22 10:25:36;;;;;;;18.13;14.32;;;19.60;81.90;;;;;;4208242;28;20437;-60
2021/09/22 10:28:00;;;;;;;17.27;15.05;;;19.70;81.90;;;;;;4210081;28;20131;-61
2021/09/22 10:30:34;;;;;;;16.67;14.13;;;19.70;82.00;;;;;;4209841;28;20047;-61
2021/09/22 10:32:56;;;;;;;21.25;14.48;;;19.80;81.70;;;;;;4209422;28;20074;-60
2021/09/22 10:35:37;;;;;;;17.48;15.13;;;19.80;81.20;;;;;;4209687;28;20410;-60
2021/09/22 10:38:00;;;;;;;16.92;15.13;;;19.80;81.70;;;;;;4209506;28;20093;-61
2021/09/22 10:40:48;;;;;;;16.48;14.75;;;19.90;81.50;;;;;;4209821;28;20055;-60
2021/09/22 10:43:22;;;;;;;19.08;17.10;;;19.90;81.80;;;;;;4209412;28;20076;-61
2021/09/22 10:45:45;;;;;;;16.60;14.77;;;19.90;81.90;;;;;;4209441;28;20093;-61
2021/09/22 10:48:17;;;;;;;20.58;16.83;;;19.90;81.60;;;;;;4209736;28;20075;-61
2021/09/22 10:50:49;;;;;;;17.85;14.95;;;20.00;81.90;;;;;;4208973;28;20062;-61
2021/09/22 10:53:36;;;;;;;19.33;14.80;;;20.00;81.80;;;;;;4208712;28;20490;-60
2021/09/22 10:56:01;;;;;;;18.65;14.02;;;20.00;82.00;;;;;;4209227;28;20443;-61
2021/09/22 10:58:32;;;;;;;18.65;14.15;;;20.00;81.40;;;;;;4209155;28;20048;-60
2021/09/22 11:00:55;;;;;;;16.08;13.63;;;20.10;81.40;;;;;;4209357;28;20055;-62
2021/09/22 11:03:56;;;;;;;13.90;11.60;;;20.10;81.10;;;;;;4208964;28;20052;-60
2021/09/22 11:06:54;;;;;;;13.05;11.65;;;20.10;81.10;;;;;;4207259;28;20079;-60
2021/09/22 11:09:37;;;;;;;12.43;10.80;;;20.10;81.00;;;;;;4209005;28;20085;-61
2021/09/22 11:12:04;;;;;;;15.82;11.93;;;20.20;81.20;;;;;;4208846;28;20055;-60
2021/09/22 11:14:31;;;;;;;14.77;11.25;;;20.20;80.90;;;;;;4209162;28;20048;-61
2021/09/22 11:16:54;;;;;;;12.50;11.10;;;20.20;80.90;;;;;;4209083;28;20136;-61
2021/09/22 11:19:17;;;;;;;14.68;10.80;;;20.20;80.80;;;;;;4209023;28;20513;-60
2021/09/22 11:21:39;;;;;;;12.63;9.75;;;20.30;81.00;;;;;;4208699;28;20143;-60
2021/09/22 11:24:11;;;;;;;14.05;10.43;;;20.30;80.70;;;;;;4208226;28;20410;-60
2021/09/22 11:26:34;;;;;;;11.15;9.95;;;20.40;80.70;;;;;;4209147;28;20056;-60
2021/09/22 11:28:59;;;;;;;14.70;10.77;;;20.40;80.50;;;;;;4209164;28;20481;-60
2021/09/22 11:31:22;;;;;;;13.90;10.57;;;20.40;80.40;;;;;;4208744;28;20415;-60
2021/09/22 11:33:44;;;;;;;10.55;9.55;;;20.50;80.30;;;;;;4208891;28;20048;-60
2021/09/22 11:36:07;;;;;;;10.82;9.30;;;20.40;80.90;;;;;;4208869;28;20067;-60
2021/09/22 11:38:34;;;;;;;12.75;9.45;;;20.50;80.00;;;;;;4208922;28;20048;-61
2021/09/22 11:40:56;;;;;;;12.55;9.13;;;20.50;80.00;;;;;;4208970;28;20063;-60
2021/09/22 11:43:21;;;;;;;12.48;9.38;;;20.50;80.00;;;;;;4208519;28;20052;-60
2021/09/22 11:45:46;;;;;;;10.40;8.52;;;20.50;79.80;;;;;;4208244;28;20967;-60
2021/09/22 11:48:12;;;;;;;9.93;8.80;;;20.50;79.70;;;;;;4208804;28;20558;-61
2021/09/22 11:50:37;;;;;;;9.68;8.40;;;20.50;79.60;;;;;;4208386;28;20051;-60
2021/09/22 11:52:59;;;;;;;9.30;8.27;;;20.50;79.60;;;;;;4208693;28;20059;-60
2021/09/22 11:55:22;;;;;;;9.85;8.65;;;20.50;79.60;;;;;;4208341;28;20051;-60
2021/09/22 11:57:45;;;;;;;9.68;8.65;;;20.50;79.70;;;;;;4208586;28;20040;-60
2021/09/22 12:00:16;;;;;;;13.23;8.95;;;20.40;79.80;;;;;;4207994;28;20132;-60
2021/09/22 12:02:38;;;;;;;12.30;8.68;;;20.50;80.10;;;;;;4208294;28;20048;-60
2021/09/22 12:05:04;;;;;;;9.38;8.35;;;20.50;80.00;;;;;;4207967;28;20127;-59
2021/09/22 12:07:30;;;;;;;8.57;7.75;;;20.50;80.00;;;;;;4208325;28;20062;-60
2021/09/22 12:09:52;;;;;;;8.48;7.68;;;20.60;79.90;;;;;;4208020;28;20050;-60
2021/09/22 12:12:17;;;;;;;8.65;7.75;;;20.60;79.80;;;;;;4208204;28;20433;-60
2021/09/22 12:14:49;;;;;;;9.15;7.20;;;20.60;79.60;;;;;;4206281;28;20557;-60
2021/09/22 12:17:13;;;;;;;11.13;8.48;;;20.60;79.40;;;;;;4207426;28;20126;-60
2021/09/22 12:19:38;;;;;;;9.98;7.68;;;20.70;79.50;;;;;;4207454;28;20570;-61
2021/09/22 12:22:01;;;;;;;9.43;8.07;;;20.70;79.40;;;;;;4179630;28;20067;-60
2021/09/22 12:24:23;;;;;;;10.07;7.20;;;20.70;79.50;;;;;;4207417;28;20044;-60
2021/09/22 12:26:51;;;;;;;12.10;8.13;;;20.70;79.40;;;;;;4207582;28;20047;-60
2021/09/22 12:29:14;;;;;;;13.30;8.63;;;20.70;79.40;;;;;;4207285;28;20406;-60
2021/09/22 12:31:39;;;;;;;10.05;8.32;;;20.80;79.40;;;;;;4208066;28;20044;-60
2021/09/22 12:34:02;;;;;;;10.77;8.77;;;20.80;79.40;;;;;;4208129;28;20040;-60
2021/09/22 12:36:23;;;;;;;10.38;7.88;;;20.80;79.30;;;;;;4207890;28;20751;-61
2021/09/22 12:38:49;;;;;;;12.05;7.93;;;20.80;79.30;;;;;;4208064;28;20101;-60
2021/09/22 12:41:12;;;;;;;9.75;7.93;;;20.80;79.30;;;;;;4207691;28;20059;-60
2021/09/22 12:43:35;;;;;;;7.95;7.20;;;20.80;79.30;;;;;;4208080;28;20058;-60